This is the latest recevied weather packets stored in our database for station/object K6GMW. If no packets are shown the sender has not sent any weather packets the latest 10 day(s).
| Time | Temp. | Humidity | Pressure | Rain* | Wind** | Luminosity | Snow |
|---|---|---|---|---|---|---|---|
| 1778174418 | 20° C | 62% | 1019.7 hPa | 0 mm | - | 791 W/m² | - |
| 1778174113 | 20.56° C | 59% | 1019.8 hPa | 0 mm | - | 693 W/m² | - |
| 1778173811 | 20° C | 60% | 1019.7 hPa | 0 mm | - | 712 W/m² | - |
| 1778173507 | 20° C | 61% | 1019.8 hPa | 0 mm | - | 1102 W/m² | - |
| 1778173204 | 20.56° C | 60% | 1020 hPa | 0 mm | - | 949 W/m² | - |
| 1778172900 | 20° C | 61% | 1020 hPa | 0 mm | - | 1020 W/m² | - |
| 1778172596 | 20.56° C | 58% | 1020 hPa | 0 mm | - | 983 W/m² | - |
| 1778172293 | 20° C | 60% | 1020 hPa | 0 mm | - | 953 W/m² | - |
| 1778171990 | 19.44° C | 59% | 1020.1 hPa | 0 mm | - | 881 W/m² | - |
| 1778171687 | 19.44° C | 61% | 1020.2 hPa | 0 mm | - | 979 W/m² | - |
| 1778171384 | 18.89° C | 63% | 1020.2 hPa | 0 mm | - | 978 W/m² | - |
| 1778171079 | 19.44° C | 61% | 1020.1 hPa | 0 mm | - | 818 W/m² | - |
| 1778170777 | 18.89° C | 63% | 1020.3 hPa | 0 mm | - | 725 W/m² | - |
| 1778170473 | 18.33° C | 65% | 1020.5 hPa | 0 mm | - | 978 W/m² | - |
| 1778170170 | 18.33° C | 65% | 1020.4 hPa | 0 mm | - | 852 W/m² | - |
| 1778169866 | 18.33° C | 64% | 1020.3 hPa | 0 mm | - | 774 W/m² | - |
| 1778169561 | 18.33° C | 66% | 1020.3 hPa | 0 mm | - | 839 W/m² | - |
| 1778169258 | 18.33° C | 63% | 1020.5 hPa | 0 mm | - | 857 W/m² | - |
| 1778168955 | 18.33° C | 61% | 1020.7 hPa | 0 mm | - | 766 W/m² | - |
| 1778168652 | 19.44° C | 61% | 1020.5 hPa | 0 mm | - | 847 W/m² | - |
| 1778168349 | 18.33° C | 62% | 1020.5 hPa | 0 mm | - | 769 W/m² | - |
| 1778168046 | 18.33° C | 63% | 1020.7 hPa | 0 mm | - | 819 W/m² | - |
| 1778167742 | 18.33° C | 64% | 1020.9 hPa | 0 mm | - | 797 W/m² | - |
| 1778167438 | 17.22° C | 65% | 1020.8 hPa | 0 mm | - | 721 W/m² | - |
| 1778167134 | 17.78° C | 65% | 1020.8 hPa | 0 mm | - | 772 W/m² | - |
* Rain latest hour (hover to see other rain measurements)
** Current wind speed in m/s (hover to see current wind gust speed)